Time;durP1;ratioP1;P1;durP2;ratioP2;P2;SDS_P1;SDS_P2;PMS_P1;PMS_P2;Temp;Humidity;BMP_temperature;BMP_pressure;BME280_temperature;BME280_humidity;BME280_pressure;Samples;Min_cycle;Max_cycle;Signal;HPM_P1;HPM_P2
2023/04/13 00:00:09;;;;;;;2.50;2.10;;;;;;;;;;5087675;28;20028;-74
2023/04/13 00:02:37;;;;;;;3.58;2.25;;;;;;;;;;5079488;28;20028;-73
2023/04/13 00:05:08;;;;;;;4.30;2.30;;;;;;;;;;5073159;28;20028;-73
2023/04/13 00:07:37;;;;;;;2.40;2.20;;;;;;;;;;5084428;28;20084;-73
2023/04/13 00:10:03;;;;;;;3.95;2.33;;;;;;;;;;5085484;28;20039;-75
2023/04/13 00:12:29;;;;;;;2.33;1.70;;;;;;;;;;5085555;28;20039;-72
2023/04/13 00:14:55;;;;;;;2.55;2.15;;;;;;;;;;5089107;28;20116;-73
2023/04/13 00:17:23;;;;;;;3.33;2.08;;;;;;;;;;5087245;28;20487;-74
2023/04/13 00:19:52;;;;;;;2.47;2.28;;;;;;;;;;5079926;28;20556;-73
2023/04/13 00:22:18;;;;;;;3.30;2.35;;;;;;;;;;5080451;28;20021;-73
2023/04/13 00:24:44;;;;;;;3.40;2.53;;;;;;;;;;5073648;28;20043;-74
2023/04/13 00:27:11;;;;;;;3.45;2.10;;;;;;;;;;5074622;28;20499;-74
2023/04/13 00:29:37;;;;;;;2.88;2.10;;;;;;;;;;5075241;28;20095;-75
2023/04/13 00:32:03;;;;;;;6.82;2.85;;;;;;;;;;5081299;28;20028;-73
2023/04/13 00:34:29;;;;;;;4.10;1.73;;;;;;;;;;5094926;28;20020;-74
2023/04/13 00:36:55;;;;;;;1.90;1.67;;;;;;;;;;5073728;28;20451;-73
2023/04/13 00:39:22;;;;;;;6.15;2.25;;;;;;;;;;5074436;28;20025;-74
2023/04/13 00:41:50;;;;;;;3.80;1.75;;;;;;;;;;5072385;28;20021;-74
2023/04/13 00:44:20;;;;;;;1.98;1.55;;;;;;;;;;5072223;28;20029;-73
2023/04/13 00:46:47;;;;;;;3.67;2.17;;;;;;;;;;5081598;28;20024;-73
2023/04/13 00:49:14;;;;;;;2.60;1.80;;;;;;;;;;5082909;28;20110;-72
2023/04/13 00:51:41;;;;;;;3.53;1.58;;;;;;;;;;5082043;28;20063;-73
2023/04/13 00:54:07;;;;;;;2.30;1.60;;;;;;;;;;5071905;28;20033;-73
2023/04/13 00:56:36;;;;;;;2.08;1.73;;;;;;;;;;5072121;28;20070;-74
2023/04/13 00:59:02;;;;;;;4.47;1.95;;;;;;;;;;5070923;28;20024;-73
2023/04/13 01:01:29;;;;;;;2.03;1.40;;;;;;;;;;5085775;28;20115;-74
2023/04/13 01:03:55;;;;;;;1.67;1.55;;;;;;;;;;5083998;28;20020;-74
2023/04/13 01:06:28;;;;;;;6.32;1.75;;;;;;;;;;5078977;28;20026;-74
2023/04/13 01:09:03;;;;;;;2.75;1.15;;;;;;;;;;5079411;28;20043;-72
2023/04/13 01:11:38;;;;;;;2.15;1.10;;;;;;;;;;5085229;28;20153;-73
2023/04/13 01:14:12;;;;;;;1.58;1.10;;;;;;;;;;5084573;28;20091;-73
2023/04/13 01:16:42;;;;;;;2.03;1.20;;;;;;;;;;5091703;28;20103;-73
2023/04/13 01:19:15;;;;;;;1.15;1.05;;;;;;;;;;5090027;28;20056;-73
2023/04/13 01:21:42;;;;;;;2.20;1.27;;;;;;;;;;5091902;28;20023;-75
2023/04/13 01:24:16;;;;;;;0.88;0.80;;;;;;;;;;5092135;28;20047;-73
2023/04/13 01:27:02;;;;;;;1.40;1.10;;;;;;;;;;5092007;28;20081;-73
2023/04/13 01:29:28;;;;;;;2.80;1.17;;;;;;;;;;5091712;28;20020;-73
2023/04/13 01:31:55;;;;;;;2.03;1.48;;;;;;;;;;5072906;28;20119;-73
2023/04/13 01:34:22;;;;;;;1.27;1.08;;;;;;;;;;5071612;28;20490;-74
2023/04/13 01:36:48;;;;;;;1.88;0.95;;;;;;;;;;5090309;28;20171;-73
2023/04/13 01:39:20;;;;;;;1.50;1.25;;;;;;;;;;5090860;28;20508;-74
2023/04/13 01:41:46;;;;;;;2.13;1.10;;;;;;;;;;5091403;28;20122;-73
2023/04/13 01:44:12;;;;;;;2.10;1.23;;;;;;;;;;5090127;28;20020;-73
2023/04/13 01:46:42;;;;;;;1.85;1.33;;;;;;;;;;5091351;28;20154;-73
2023/04/13 01:49:09;;;;;;;1.13;1.00;;;;;;;;;;5090394;28;20063;-74
2023/04/13 01:51:36;;;;;;;2.03;1.25;;;;;;;;;;5091394;28;20037;-72
2023/04/13 01:54:06;;;;;;;1.20;1.10;;;;;;;;;;5091964;28;20103;-73
2023/04/13 01:56:33;;;;;;;1.90;0.93;;;;;;;;;;5091305;28;20032;-72
2023/04/13 01:58:59;;;;;;;1.25;1.00;;;;;;;;;;5090718;28;20028;-74
2023/04/13 02:01:25;;;;;;;2.40;1.60;;;;;;;;;;5077510;28;20178;-72
2023/04/13 02:03:52;;;;;;;2.75;1.48;;;;;;;;;;5081845;28;20020;-74
2023/04/13 02:06:18;;;;;;;2.08;1.33;;;;;;;;;;5091162;28;20024;-72
2023/04/13 02:08:44;;;;;;;5.30;1.48;;;;;;;;;;5073130;28;20249;-75
2023/04/13 02:11:14;;;;;;;2.20;1.63;;;;;;;;;;5089676;28;20043;-72
2023/04/13 02:13:40;;;;;;;2.65;1.60;;;;;;;;;;5091242;28;20095;-73
2023/04/13 02:16:07;;;;;;;3.90;1.73;;;;;;;;;;5079024;28;20406;-72
2023/04/13 02:18:33;;;;;;;7.25;1.70;;;;;;;;;;5070087;28;20020;-74
2023/04/13 02:21:07;;;;;;;4.45;1.90;;;;;;;;;;5070888;28;20036;-73
2023/04/13 02:23:34;;;;;;;3.80;1.55;;;;;;;;;;5070828;28;20479;-73
2023/04/13 02:26:00;;;;;;;2.78;1.17;;;;;;;;;;5070895;28;20059;-74
2023/04/13 02:28:27;;;;;;;2.10;1.10;;;;;;;;;;5069808;28;20042;-74
2023/04/13 02:30:58;;;;;;;1.80;1.25;;;;;;;;;;5070911;28;20025;-74
2023/04/13 02:33:29;;;;;;;;;;;;;;;;;;5071323;28;20024;-73
2023/04/13 02:35:56;;;;;;;1.95;1.45;;;;;;;;;;5081867;28;19944;-74
2023/04/13 02:38:22;;;;;;;1.15;0.68;;;;;;;;;;5090063;28;20401;-73
2023/04/13 02:40:48;;;;;;;2.30;0.93;;;;;;;;;;5089535;28;20029;-70
2023/04/13 02:43:14;;;;;;;0.80;0.70;;;;;;;;;;5092441;28;20051;-72
2023/04/13 02:45:41;;;;;;;0.82;0.60;;;;;;;;;;5095668;28;20039;-73
2023/04/13 02:48:09;;;;;;;1.75;0.80;;;;;;;;;;5087833;28;20028;-71
2023/04/13 02:50:35;;;;;;;1.77;0.70;;;;;;;;;;5085937;28;20028;-73
2023/04/13 02:53:01;;;;;;;1.45;0.60;;;;;;;;;;5075068;28;20109;-73
2023/04/13 02:55:27;;;;;;;1.27;0.63;;;;;;;;;;5088974;28;20153;-74
2023/04/13 02:57:53;;;;;;;1.38;0.90;;;;;;;;;;5075258;28;20478;-74
2023/04/13 03:00:19;;;;;;;1.90;0.98;;;;;;;;;;5079245;28;20091;-74
2023/04/13 03:02:45;;;;;;;1.65;0.47;;;;;;;;;;5094240;28;20662;-74
2023/04/13 03:05:12;;;;;;;1.55;0.90;;;;;;;;;;5094392;28;20028;-74
2023/04/13 03:07:38;;;;;;;0.77;0.57;;;;;;;;;;5093703;28;20152;-74
2023/04/13 03:10:05;;;;;;;1.33;0.80;;;;;;;;;;5094547;28;20024;-73
2023/04/13 03:12:31;;;;;;;1.02;0.85;;;;;;;;;;5094374;28;20025;-74
2023/04/13 03:15:01;;;;;;;1.02;0.65;;;;;;;;;;5094291;28;20113;-74
2023/04/13 03:17:27;;;;;;;1.35;0.88;;;;;;;;;;5093361;28;20571;-74
2023/04/13 03:19:53;;;;;;;2.63;1.10;;;;;;;;;;5094287;28;20130;-74
2023/04/13 03:22:19;;;;;;;1.00;0.50;;;;;;;;;;5094115;28;20103;-73
2023/04/13 03:24:45;;;;;;;1.13;0.40;;;;;;;;;;5093941;28;20519;-73
2023/04/13 03:27:11;;;;;;;1.30;0.55;;;;;;;;;;5093372;28;20017;-73
2023/04/13 03:29:37;;;;;;;1.55;0.50;;;;;;;;;;5093791;28;20386;-73
2023/04/13 03:32:03;;;;;;;2.50;0.80;;;;;;;;;;5093780;28;20122;-72
2023/04/13 03:34:30;;;;;;;1.05;0.60;;;;;;;;;;5085189;28;20634;-72
2023/04/13 03:36:56;;;;;;;3.35;0.60;;;;;;;;;;5079011;28;20038;-73
2023/04/13 03:39:22;;;;;;;2.05;0.93;;;;;;;;;;5075994;28;20398;-73
2023/04/13 03:41:48;;;;;;;1.10;0.60;;;;;;;;;;5093612;28;20122;-73
2023/04/13 03:44:14;;;;;;;2.75;0.50;;;;;;;;;;5093557;28;20052;-73
2023/04/13 03:46:40;;;;;;;1.48;0.77;;;;;;;;;;5092829;28;20024;-73
2023/04/13 03:49:07;;;;;;;0.90;0.55;;;;;;;;;;5092717;28;20035;-72
2023/04/13 03:51:34;;;;;;;1.02;0.47;;;;;;;;;;5093456;28;20132;-73
2023/04/13 03:54:00;;;;;;;0.60;0.40;;;;;;;;;;5093242;28;20139;-73
2023/04/13 03:56:26;;;;;;;0.68;0.40;;;;;;;;;;5093261;28;20039;-73
2023/04/13 03:58:53;;;;;;;1.55;0.55;;;;;;;;;;5092228;28;20440;-72
2023/04/13 04:01:19;;;;;;;2.05;0.65;;;;;;;;;;5092996;28;20020;-75
2023/04/13 04:03:45;;;;;;;6.07;0.90;;;;;;;;;;5093178;28;20024;-74
2023/04/13 04:06:11;;;;;;;0.55;0.40;;;;;;;;;;5093286;28;20028;-72
2023/04/13 04:08:37;;;;;;;1.10;0.60;;;;;;;;;;5092496;28;20024;-72
2023/04/13 04:11:03;;;;;;;0.93;0.50;;;;;;;;;;5092974;28;20031;-73
2023/04/13 04:13:29;;;;;;;1.02;0.65;;;;;;;;;;5093230;28;20024;-72
2023/04/13 04:15:56;;;;;;;1.33;0.50;;;;;;;;;;5084749;28;20081;-72
2023/04/13 04:18:23;;;;;;;2.05;0.52;;;;;;;;;;5071526;28;20378;-72
2023/04/13 04:20:49;;;;;;;1.08;0.70;;;;;;;;;;5072587;28;20017;-71
2023/04/13 04:23:16;;;;;;;3.17;0.75;;;;;;;;;;5072430;28;20119;-73
2023/04/13 04:25:44;;;;;;;1.50;0.70;;;;;;;;;;5072551;28;20020;-73
2023/04/13 04:28:16;;;;;;;1.80;0.77;;;;;;;;;;5071446;28;20035;-74
2023/04/13 04:30:44;;;;;;;4.45;0.50;;;;;;;;;;5078118;28;20710;-73
2023/04/13 04:33:10;;;;;;;0.65;0.50;;;;;;;;;;5092581;28;20031;-72
2023/04/13 04:35:48;;;;;;;1.50;0.60;;;;;;;;;;5092331;28;20055;-73
2023/04/13 04:38:16;;;;;;;2.58;0.70;;;;;;;;;;5090087;28;20035;-74
2023/04/13 04:40:44;;;;;;;1.88;0.90;;;;;;;;;;5092222;28;20421;-74
2023/04/13 04:43:12;;;;;;;4.63;1.40;;;;;;;;;;5092622;28;20032;-73
2023/04/13 04:45:42;;;;;;;2.60;0.52;;;;;;;;;;5092434;28;20013;-72
2023/04/13 04:48:08;;;;;;;0.88;0.50;;;;;;;;;;5091445;28;20031;-72
2023/04/13 04:50:36;;;;;;;0.77;0.50;;;;;;;;;;5092403;28;20118;-72
2023/04/13 04:53:02;;;;;;;4.63;0.90;;;;;;;;;;5092350;28;20477;-72
2023/04/13 04:55:28;;;;;;;0.85;0.60;;;;;;;;;;5092111;28;20131;-73
2023/04/13 04:57:54;;;;;;;2.15;0.80;;;;;;;;;;5091578;28;20028;-73
2023/04/13 05:00:20;;;;;;;3.58;0.98;;;;;;;;;;5084086;28;20364;-73
2023/04/13 05:02:49;;;;;;;2.63;0.75;;;;;;;;;;5090653;28;20036;-73
2023/04/13 05:05:15;;;;;;;1.08;0.60;;;;;;;;;;5091539;28;20020;-74
2023/04/13 05:07:41;;;;;;;1.38;0.65;;;;;;;;;;5091375;28;20156;-73
2023/04/13 05:10:08;;;;;;;2.30;1.20;;;;;;;;;;5091678;28;20044;-73
2023/04/13 05:12:34;;;;;;;2.30;0.60;;;;;;;;;;5082745;28;20028;-73
2023/04/13 05:15:01;;;;;;;2.47;0.63;;;;;;;;;;5082770;28;20024;-72
2023/04/13 05:17:27;;;;;;;4.70;0.82;;;;;;;;;;5090851;28;20494;-73
2023/04/13 05:19:53;;;;;;;2.35;0.85;;;;;;;;;;5091599;28;20024;-76
2023/04/13 05:22:20;;;;;;;3.95;1.38;;;;;;;;;;5085752;28;20031;-76
2023/04/13 05:24:46;;;;;;;3.30;0.80;;;;;;;;;;5089366;28;20465;-73
2023/04/13 05:27:14;;;;;;;1.48;0.93;;;;;;;;;;5078290;28;20023;-73
2023/04/13 05:29:40;;;;;;;5.05;1.23;;;;;;;;;;5070956;28;20017;-73
2023/04/13 05:32:06;;;;;;;1.45;0.73;;;;;;;;;;5077260;28;20027;-74
2023/04/13 05:34:34;;;;;;;5.90;0.90;;;;;;;;;;5091121;28;20024;-74
2023/04/13 05:37:00;;;;;;;3.40;0.80;;;;;;;;;;5084601;28;20024;-72
2023/04/13 05:39:27;;;;;;;2.08;0.80;;;;;;;;;;5090826;28;20036;-72
2023/04/13 05:41:53;;;;;;;1.80;0.95;;;;;;;;;;5091130;28;20031;-72
2023/04/13 05:44:19;;;;;;;2.97;0.98;;;;;;;;;;5091336;28;20061;-72
2023/04/13 05:46:46;;;;;;;1.63;0.90;;;;;;;;;;5089370;28;20027;-72
2023/04/13 05:49:12;;;;;;;1.85;0.80;;;;;;;;;;5088449;28;20028;-73
2023/04/13 05:51:38;;;;;;;6.07;1.17;;;;;;;;;;5089213;28;20115;-73
2023/04/13 05:54:05;;;;;;;2.03;0.88;;;;;;;;;;5090968;28;20120;-75
2023/04/13 05:56:33;;;;;;;3.55;0.80;;;;;;;;;;5088979;28;20082;-72
2023/04/13 05:58:59;;;;;;;5.32;1.17;;;;;;;;;;5088228;28;20517;-74
2023/04/13 06:01:28;;;;;;;5.15;1.23;;;;;;;;;;5079840;28;20083;-74
2023/04/13 06:03:54;;;;;;;5.28;2.25;;;;;;;;;;5070774;28;20025;-74
2023/04/13 06:06:21;;;;;;;1.67;0.70;;;;;;;;;;5070683;28;20033;-75
2023/04/13 06:08:47;;;;;;;1.92;1.05;;;;;;;;;;5069639;28;20025;-73
2023/04/13 06:11:14;;;;;;;3.20;0.70;;;;;;;;;;5070917;28;20476;-74
2023/04/13 06:13:41;;;;;;;4.13;1.25;;;;;;;;;;5070779;28;20479;-72
2023/04/13 06:16:08;;;;;;;3.55;1.10;;;;;;;;;;5070572;28;20039;-74
2023/04/13 06:18:34;;;;;;;6.80;1.00;;;;;;;;;;5071957;28;20024;-72
2023/04/13 06:21:00;;;;;;;3.78;0.75;;;;;;;;;;5074503;28;20099;-73
2023/04/13 06:23:26;;;;;;;1.65;0.82;;;;;;;;;;5073429;28;20474;-73
2023/04/13 06:25:52;;;;;;;1.17;0.75;;;;;;;;;;5074596;28;20104;-73
2023/04/13 06:28:18;;;;;;;1.92;0.70;;;;;;;;;;5073916;28;20021;-73
2023/04/13 06:30:44;;;;;;;4.32;0.80;;;;;;;;;;5074469;28;20100;-74
2023/04/13 06:33:10;;;;;;;3.25;0.77;;;;;;;;;;5074792;28;20517;-73
2023/04/13 06:35:36;;;;;;;1.38;0.73;;;;;;;;;;5083494;28;20034;-72
2023/04/13 06:38:02;;;;;;;1.85;0.65;;;;;;;;;;5094020;28;20106;-73
2023/04/13 06:40:30;;;;;;;2.45;0.93;;;;;;;;;;5095110;28;20089;-73
2023/04/13 06:42:57;;;;;;;2.33;0.80;;;;;;;;;;5094143;28;20035;-72
2023/04/13 06:45:23;;;;;;;6.80;1.08;;;;;;;;;;5094185;28;20020;-72
2023/04/13 06:47:52;;;;;;;2.47;0.85;;;;;;;;;;5087527;28;20015;-74
2023/04/13 06:50:18;;;;;;;1.98;0.70;;;;;;;;;;5083244;28;20020;-73
2023/04/13 06:52:45;;;;;;;5.25;1.23;;;;;;;;;;5092938;28;20052;-73
2023/04/13 06:55:11;;;;;;;1.08;0.77;;;;;;;;;;5093862;28;20161;-71
2023/04/13 06:57:38;;;;;;;3.30;1.80;;;;;;;;;;5090181;28;20020;-72
2023/04/13 07:00:05;;;;;;;4.07;1.55;;;;;;;;;;5085910;28;20028;-72
2023/04/13 07:02:31;;;;;;;3.17;1.52;;;;;;;;;;5085520;28;20036;-71
2023/04/13 07:04:57;;;;;;;3.10;0.82;;;;;;;;;;5084778;28;20046;-72
2023/04/13 07:07:24;;;;;;;4.95;1.33;;;;;;;;;;5093467;28;20039;-71
2023/04/13 07:09:50;;;;;;;3.05;1.35;;;;;;;;;;5094101;28;20024;-73
2023/04/13 07:12:16;;;;;;;1.17;0.75;;;;;;;;;;5093131;28;20497;-74
2023/04/13 07:14:42;;;;;;;4.38;0.95;;;;;;;;;;5092415;28;20147;-73
2023/04/13 07:17:08;;;;;;;4.78;1.10;;;;;;;;;;5092753;28;20036;-71
2023/04/13 07:19:35;;;;;;;3.80;1.67;;;;;;;;;;5093810;28;20028;-71
2023/04/13 07:22:01;;;;;;;3.15;1.00;;;;;;;;;;5093872;28;20108;-72
2023/04/13 07:24:27;;;;;;;2.28;0.82;;;;;;;;;;5093758;28;20023;-73
2023/04/13 07:26:57;;;;;;;4.05;0.73;;;;;;;;;;5092318;28;20024;-71
2023/04/13 07:29:23;;;;;;;2.05;0.80;;;;;;;;;;5092556;28;20028;-71
2023/04/13 07:31:50;;;;;;;2.63;0.88;;;;;;;;;;5093681;28;20407;-70
2023/04/13 07:34:16;;;;;;;1.65;0.70;;;;;;;;;;5075840;28;20115;-71
2023/04/13 07:36:42;;;;;;;5.22;0.98;;;;;;;;;;5090853;28;20528;-71
2023/04/13 07:39:09;;;;;;;2.78;0.93;;;;;;;;;;5073926;28;20055;-71
2023/04/13 07:41:35;;;;;;;3.72;1.13;;;;;;;;;;5072979;28;20071;-72
2023/04/13 07:44:04;;;;;;;3.15;1.35;;;;;;;;;;5091692;28;20067;-70
2023/04/13 07:46:30;;;;;;;3.72;1.55;;;;;;;;;;5093387;28;20032;-71
2023/04/13 07:48:56;;;;;;;3.85;1.33;;;;;;;;;;5092153;28;20028;-73
2023/04/13 07:51:22;;;;;;;4.60;1.10;;;;;;;;;;5091899;28;20532;-70
2023/04/13 07:53:48;;;;;;;3.28;1.20;;;;;;;;;;5091350;28;20024;-71
2023/04/13 07:56:14;;;;;;;3.10;0.65;;;;;;;;;;5091263;28;20024;-71
2023/04/13 07:58:41;;;;;;;5.38;1.50;;;;;;;;;;5090066;28;20016;-71
2023/04/13 08:01:07;;;;;;;2.80;1.10;;;;;;;;;;5091061;28;20028;-71
2023/04/13 08:03:33;;;;;;;2.05;1.13;;;;;;;;;;5091442;28;20024;-71
2023/04/13 08:06:00;;;;;;;2.85;1.20;;;;;;;;;;5092255;28;20023;-71
2023/04/13 08:08:26;;;;;;;4.22;1.00;;;;;;;;;;5093144;28;20033;-71
2023/04/13 08:10:54;;;;;;;3.40;1.30;;;;;;;;;;5094130;28;20031;-72
2023/04/13 08:13:20;;;;;;;5.00;1.27;;;;;;;;;;5091943;28;20052;-71
2023/04/13 08:15:46;;;;;;;2.80;0.68;;;;;;;;;;5092880;28;20065;-72
2023/04/13 08:18:12;;;;;;;1.48;0.70;;;;;;;;;;5092345;28;20034;-69
2023/04/13 08:20:38;;;;;;;3.65;1.00;;;;;;;;;;5091509;28;20059;-70
2023/04/13 08:23:05;;;;;;;2.10;1.00;;;;;;;;;;5092581;28;20052;-70
2023/04/13 08:25:31;;;;;;;2.80;0.88;;;;;;;;;;5092104;28;20023;-71
2023/04/13 08:27:57;;;;;;;1.40;0.75;;;;;;;;;;5091200;28;20123;-71
2023/04/13 08:30:23;;;;;;;6.32;1.08;;;;;;;;;;5090656;28;20108;-72
2023/04/13 08:32:49;;;;;;;3.50;0.90;;;;;;;;;;5092358;28;20024;-70
2023/04/13 08:35:15;;;;;;;2.97;0.90;;;;;;;;;;5092294;28;20024;-69
2023/04/13 08:37:41;;;;;;;3.80;0.80;;;;;;;;;;5091458;28;20024;-70
2023/04/13 08:40:10;;;;;;;3.90;1.05;;;;;;;;;;5091720;28;20089;-70
2023/04/13 08:42:37;;;;;;;3.13;0.95;;;;;;;;;;5090296;28;20028;-72
2023/04/13 08:45:04;;;;;;;2.95;0.90;;;;;;;;;;5092324;28;20347;-71
2023/04/13 08:47:30;;;;;;;2.47;1.00;;;;;;;;;;5091413;28;20035;-71
2023/04/13 08:49:57;;;;;;;4.00;1.52;;;;;;;;;;5092016;28;20028;-71
2023/04/13 08:52:24;;;;;;;5.07;1.25;;;;;;;;;;5092325;28;20028;-71
2023/04/13 08:54:50;;;;;;;2.08;0.90;;;;;;;;;;5088396;28;20470;-69
2023/04/13 08:57:16;;;;;;;4.15;1.02;;;;;;;;;;5088294;28;20482;-72
2023/04/13 08:59:43;;;;;;;1.90;0.98;;;;;;;;;;5091582;28;20036;-71
2023/04/13 09:02:10;;;;;;;4.05;1.27;;;;;;;;;;5092008;28;20087;-69
2023/04/13 09:04:37;;;;;;;3.38;1.20;;;;;;;;;;5091792;28;20051;-71
2023/04/13 09:07:03;;;;;;;3.50;1.30;;;;;;;;;;5090224;28;20083;-70
2023/04/13 09:09:31;;;;;;;2.70;0.90;;;;;;;;;;5091733;28;20025;-71
2023/04/13 09:11:58;;;;;;;4.00;1.00;;;;;;;;;;5092163;28;20024;-73
2023/04/13 09:14:24;;;;;;;6.53;1.20;;;;;;;;;;5091553;28;20024;-72
2023/04/13 09:16:50;;;;;;;2.30;0.70;;;;;;;;;;5091214;28;20028;-71
2023/04/13 09:19:17;;;;;;;1.60;0.68;;;;;;;;;;5090672;28;20044;-71
2023/04/13 09:21:43;;;;;;;2.30;0.77;;;;;;;;;;5091616;28;20027;-70
2023/04/13 09:24:10;;;;;;;3.42;1.13;;;;;;;;;;5092587;28;20023;-71
2023/04/13 09:26:43;;;;;;;1.60;0.73;;;;;;;;;;5091786;28;20089;-71
2023/04/13 09:29:11;;;;;;;3.15;1.00;;;;;;;;;;5088878;28;20073;-70
2023/04/13 09:31:38;;;;;;;2.42;1.05;;;;;;;;;;5089844;28;20032;-71
2023/04/13 09:34:05;;;;;;;4.07;1.67;;;;;;;;;;5091548;28;20024;-71
2023/04/13 09:36:31;;;;;;;5.70;1.80;;;;;;;;;;5091174;28;20024;-72
2023/04/13 09:38:57;;;;;;;2.08;0.98;;;;;;;;;;5090766;28;20024;-71
2023/04/13 09:41:30;;;;;;;2.97;1.20;;;;;;;;;;5087721;28;20153;-71
2023/04/13 09:43:56;;;;;;;3.40;1.10;;;;;;;;;;5091315;28;20047;-71
2023/04/13 09:46:22;;;;;;;2.85;1.10;;;;;;;;;;5091516;28;20504;-71
2023/04/13 09:49:04;;;;;;;5.30;1.88;;;;;;;;;;5090076;28;20146;-72
2023/04/13 09:51:37;;;;;;;3.92;1.45;;;;;;;;;;5087931;28;20027;-71
2023/04/13 09:54:04;;;;;;;3.63;1.67;;;;;;;;;;5088272;28;20028;-72
2023/04/13 09:56:41;;;;;;;6.03;1.38;;;;;;;;;;5089730;28;20024;-71
2023/04/13 09:59:09;;;;;;;2.05;1.05;;;;;;;;;;5090116;28;20509;-71
2023/04/13 10:01:36;;;;;;;5.25;1.20;;;;;;;;;;5090603;28;20405;-71
2023/04/13 10:04:04;;;;;;;4.07;1.60;;;;;;;;;;5090918;28;20389;-71
2023/04/13 10:06:30;;;;;;;4.88;1.05;;;;;;;;;;5090664;28;20099;-71
2023/04/13 10:08:57;;;;;;;2.47;1.08;;;;;;;;;;5089871;28;20030;-70
2023/04/13 10:11:23;;;;;;;3.85;0.73;;;;;;;;;;5090747;28;20024;-71
2023/04/13 10:13:51;;;;;;;2.53;1.10;;;;;;;;;;5088254;28;20024;-72
2023/04/13 10:16:17;;;;;;;2.50;0.90;;;;;;;;;;5090514;28;20020;-71
2023/04/13 10:18:43;;;;;;;4.18;0.93;;;;;;;;;;5084832;28;20035;-72
2023/04/13 10:21:10;;;;;;;6.40;1.30;;;;;;;;;;5088871;28;20389;-72
2023/04/13 10:23:37;;;;;;;7.32;1.35;;;;;;;;;;5085313;28;20040;-73
2023/04/13 10:26:05;;;;;;;3.15;0.88;;;;;;;;;;5089994;28;20016;-71
2023/04/13 10:28:47;;;;;;;3.70;0.90;;;;;;;;;;5089946;28;20012;-70
2023/04/13 10:31:13;;;;;;;3.22;0.75;;;;;;;;;;5075536;28;20009;-71
2023/04/13 10:33:47;;;;;;;5.50;1.13;;;;;;;;;;5090789;28;20020;-71
2023/04/13 10:36:13;;;;;;;2.67;0.98;;;;;;;;;;5076463;28;20025;-71
2023/04/13 10:38:42;;;;;;;1.90;0.98;;;;;;;;;;5067898;28;20021;-70
2023/04/13 10:41:08;;;;;;;3.20;1.10;;;;;;;;;;5070425;28;20025;-70
2023/04/13 10:43:34;;;;;;;1.77;0.77;;;;;;;;;;5070609;28;20059;-70
2023/04/13 10:46:04;;;;;;;3.83;1.10;;;;;;;;;;5070527;28;20414;-71
2023/04/13 10:48:30;;;;;;;4.15;1.45;;;;;;;;;;5069203;28;20418;-73
2023/04/13 10:50:57;;;;;;;3.13;1.00;;;;;;;;;;5069261;28;20029;-72
2023/04/13 10:53:24;;;;;;;3.80;0.90;;;;;;;;;;5069283;28;20386;-71
2023/04/13 10:55:50;;;;;;;4.32;0.95;;;;;;;;;;5070311;28;20024;-73
2023/04/13 10:58:17;;;;;;;3.20;1.00;;;;;;;;;;5069253;28;20024;-72
2023/04/13 11:00:44;;;;;;;3.40;1.00;;;;;;;;;;5070371;28;20107;-73
2023/04/13 11:03:10;;;;;;;3.22;1.02;;;;;;;;;;5069320;28;20490;-71
2023/04/13 11:05:36;;;;;;;3.22;1.17;;;;;;;;;;5074120;28;20115;-72
2023/04/13 11:08:03;;;;;;;3.15;1.02;;;;;;;;;;5073248;28;20067;-71
2023/04/13 11:10:30;;;;;;;2.35;0.70;;;;;;;;;;5073796;28;20023;-71
2023/04/13 11:12:57;;;;;;;2.67;0.90;;;;;;;;;;5073885;28;20407;-73
2023/04/13 11:15:27;;;;;;;3.70;1.05;;;;;;;;;;5073713;28;20455;-71
2023/04/13 11:17:54;;;;;;;3.50;0.82;;;;;;;;;;5072868;28;20028;-72
2023/04/13 11:20:30;;;;;;;6.10;1.08;;;;;;;;;;5073283;28;20031;-73
2023/04/13 11:22:56;;;;;;;5.07;1.58;;;;;;;;;;5072651;28;20025;-72
2023/04/13 11:25:22;;;;;;;3.20;1.00;;;;;;;;;;5072156;28;20017;-72
2023/04/13 11:27:55;;;;;;;1.70;0.85;;;;;;;;;;5072974;28;20016;-71
2023/04/13 11:30:22;;;;;;;2.63;1.00;;;;;;;;;;5074016;28;20020;-71
2023/04/13 11:32:49;;;;;;;2.72;1.02;;;;;;;;;;5073967;28;20032;-70
2023/04/13 11:35:16;;;;;;;4.35;1.25;;;;;;;;;;5072230;28;20066;-71
2023/04/13 11:37:43;;;;;;;2.70;1.35;;;;;;;;;;5073110;28;20024;-71
2023/04/13 11:40:16;;;;;;;3.03;1.17;;;;;;;;;;5073661;28;20055;-72
2023/04/13 11:42:43;;;;;;;2.60;0.80;;;;;;;;;;5073964;28;20016;-71
2023/04/13 11:45:10;;;;;;;4.28;1.33;;;;;;;;;;5073294;28;20025;-70
2023/04/13 11:47:36;;;;;;;5.00;1.13;;;;;;;;;;5072289;28;20493;-72
2023/04/13 11:50:06;;;;;;;7.20;1.13;;;;;;;;;;5072638;28;20379;-71
2023/04/13 11:52:33;;;;;;;4.40;1.23;;;;;;;;;;5074366;28;20074;-73
2023/04/13 11:55:00;;;;;;;2.45;0.80;;;;;;;;;;5073308;28;20081;-71
2023/04/13 11:57:27;;;;;;;2.13;1.30;;;;;;;;;;5072558;28;20040;-72
2023/04/13 11:59:54;;;;;;;3.13;0.98;;;;;;;;;;5073156;28;20025;-71
2023/04/13 12:02:26;;;;;;;2.15;0.73;;;;;;;;;;5073602;28;20028;-71
2023/04/13 12:04:52;;;;;;;2.85;0.90;;;;;;;;;;5073430;28;20093;-71
2023/04/13 12:07:19;;;;;;;6.05;1.30;;;;;;;;;;5072748;28;20039;-72
2023/04/13 12:09:45;;;;;;;5.40;0.90;;;;;;;;;;5072973;28;20111;-72
2023/04/13 12:12:23;;;;;;;3.70;1.00;;;;;;;;;;5072936;28;20033;-72
2023/04/13 12:14:56;;;;;;;3.17;0.80;;;;;;;;;;5072999;28;20028;-73
2023/04/13 12:17:22;;;;;;;5.55;1.33;;;;;;;;;;5072839;28;20375;-71
2023/04/13 12:19:53;;;;;;;4.15;1.05;;;;;;;;;;5073122;28;20033;-71
2023/04/13 12:22:20;;;;;;;2.28;0.93;;;;;;;;;;5073221;28;20025;-71
2023/04/13 12:24:46;;;;;;;1.55;0.85;;;;;;;;;;5073368;28;20017;-70
2023/04/13 12:27:12;;;;;;;2.38;0.70;;;;;;;;;;5071600;28;20108;-71
2023/04/13 12:29:39;;;;;;;1.85;0.73;;;;;;;;;;5072304;28;20024;-73
2023/04/13 12:32:12;;;;;;;4.78;1.08;;;;;;;;;;5072738;28;20032;-72
2023/04/13 12:34:38;;;;;;;3.13;0.98;;;;;;;;;;5072507;28;20094;-71
2023/04/13 12:37:04;;;;;;;2.97;0.93;;;;;;;;;;5071686;28;20033;-70
2023/04/13 12:39:30;;;;;;;5.15;1.58;;;;;;;;;;5082002;28;20058;-71
2023/04/13 12:41:56;;;;;;;2.35;1.00;;;;;;;;;;5092170;28;20036;-71
2023/04/13 12:44:22;;;;;;;1.45;0.30;;;;;;;;;;5092267;28;20021;-70
2023/04/13 12:46:48;;;;;;;1.98;0.73;;;;;;;;;;5073644;28;20025;-73
2023/04/13 12:49:15;;;;;;;2.85;0.90;;;;;;;;;;5071342;28;20063;-70
2023/04/13 12:51:41;;;;;;;2.92;0.70;;;;;;;;;;5071979;28;20024;-71
2023/04/13 12:54:12;;;;;;;1.73;0.80;;;;;;;;;;5073916;28;20478;-71
2023/04/13 12:56:38;;;;;;;3.25;0.77;;;;;;;;;;5090761;28;20481;-72
2023/04/13 12:59:04;;;;;;;2.97;1.20;;;;;;;;;;5080812;28;20397;-72
2023/04/13 13:01:30;;;;;;;2.70;1.35;;;;;;;;;;5091156;28;20024;-71
2023/04/13 13:03:56;;;;;;;2.17;0.68;;;;;;;;;;5091030;28;20031;-72
2023/04/13 13:06:22;;;;;;;1.63;0.88;;;;;;;;;;5091110;28;20038;-70
2023/04/13 13:08:50;;;;;;;2.45;0.80;;;;;;;;;;5091237;28;20429;-71
2023/04/13 13:11:16;;;;;;;2.55;1.27;;;;;;;;;;5091801;28;20027;-71
2023/04/13 13:13:42;;;;;;;3.30;1.27;;;;;;;;;;5091860;28;20433;-72
2023/04/13 13:16:08;;;;;;;4.10;0.93;;;;;;;;;;5090475;28;20016;-70
2023/04/13 13:18:34;;;;;;;3.42;0.88;;;;;;;;;;5090916;28;20020;-71
2023/04/13 13:21:00;;;;;;;2.55;0.93;;;;;;;;;;5091906;28;20028;-73
2023/04/13 13:23:26;;;;;;;2.67;1.13;;;;;;;;;;5091653;28;20059;-71
2023/04/13 13:25:52;;;;;;;3.58;1.20;;;;;;;;;;5091232;28;20490;-70
2023/04/13 13:28:18;;;;;;;3.22;1.00;;;;;;;;;;5089615;28;20016;-71
2023/04/13 13:30:44;;;;;;;3.08;1.25;;;;;;;;;;5090395;28;20032;-71
2023/04/13 13:33:11;;;;;;;5.05;1.20;;;;;;;;;;5088143;28;20038;-68
2023/04/13 13:35:37;;;;;;;2.38;0.90;;;;;;;;;;5073877;28;20030;-71
2023/04/13 13:38:03;;;;;;;3.08;1.30;;;;;;;;;;5074136;28;20103;-72
2023/04/13 13:40:29;;;;;;;3.47;1.08;;;;;;;;;;5087529;28;20024;-72
2023/04/13 13:42:55;;;;;;;2.38;0.77;;;;;;;;;;5089581;28;20430;-71
2023/04/13 13:45:21;;;;;;;3.83;0.90;;;;;;;;;;5089970;28;20032;-70
2023/04/13 13:47:50;;;;;;;5.18;1.35;;;;;;;;;;5088706;28;20051;-71
2023/04/13 13:50:17;;;;;;;2.13;0.85;;;;;;;;;;5089521;28;20478;-71
2023/04/13 13:52:43;;;;;;;4.05;1.58;;;;;;;;;;5089681;28;20076;-72
2023/04/13 13:55:09;;;;;;;2.80;0.88;;;;;;;;;;5089715;28;20024;-71
2023/04/13 13:57:35;;;;;;;3.22;1.25;;;;;;;;;;5090350;28;20073;-70
2023/04/13 14:00:04;;;;;;;5.95;1.35;;;;;;;;;;5091222;28;20032;-71
2023/04/13 14:02:30;;;;;;;3.38;0.80;;;;;;;;;;5090187;28;20035;-71
2023/04/13 14:04:56;;;;;;;3.35;1.00;;;;;;;;;;5091089;28;20077;-70
2023/04/13 14:07:22;;;;;;;4.22;1.15;;;;;;;;;;5090428;28;20024;-72
2023/04/13 14:09:48;;;;;;;2.67;1.10;;;;;;;;;;5090996;28;20493;-71
2023/04/13 14:12:14;;;;;;;2.25;0.95;;;;;;;;;;5091189;28;20036;-71
2023/04/13 14:14:40;;;;;;;6.15;1.02;;;;;;;;;;5091008;28;20469;-70
2023/04/13 14:17:06;;;;;;;3.72;1.00;;;;;;;;;;5090902;28;20108;-71
2023/04/13 14:19:33;;;;;;;3.05;1.00;;;;;;;;;;5090971;28;20047;-69
2023/04/13 14:21:59;;;;;;;5.40;1.13;;;;;;;;;;5090835;28;20024;-71
2023/04/13 14:24:26;;;;;;;2.53;1.17;;;;;;;;;;5090904;28;20032;-69
2023/04/13 14:26:52;;;;;;;2.75;0.98;;;;;;;;;;5090977;28;20409;-73
2023/04/13 14:29:18;;;;;;;3.70;1.08;;;;;;;;;;5090049;28;20099;-70
2023/04/13 14:31:44;;;;;;;3.05;1.20;;;;;;;;;;5091060;28;20076;-70
2023/04/13 14:34:10;;;;;;;2.90;1.10;;;;;;;;;;5089639;28;20024;-71
2023/04/13 14:36:36;;;;;;;2.63;1.25;;;;;;;;;;5090720;28;20085;-70
2023/04/13 14:39:03;;;;;;;5.07;1.25;;;;;;;;;;5091142;28;20069;-70
2023/04/13 14:41:29;;;;;;;3.67;1.13;;;;;;;;;;5094793;28;20030;-71